Ride Results

BEER North Motton (01-07-2016)
Ride distance: 80.0 km

Outcomes - BEER North Motton (01-07-2016)
Division No. of Entries Retired / DNE Completed Withdrawn Ineligible V/O Percentage Completed
HW 4 - 4 - - - 100.00%
MW 17 - 14 1 - 2 82.35%
LW 13 - 12 - - 1 92.31%
JN 6 - 6 - - - 100.00%
Totals 40 - 36 1 - 3 90.00%
Results - BEER North Motton (01-07-2016)
No. Rider Horse Place Time Leg Speeds Total
Km/Hr
H/R bpm
Heavyweight
272 Greg Cowen Marshdale Cheeky Lad 1 (BC) 5:19:50 16.1, 14.0 15.01 26, 43, 51 (Avg:47)
94 Natalie Humphries Santanova 2 7:01:00 11.5, 11.2 11.40 35, 46, 50 (Avg:48)
286 Ian Sims Quintally Spiderman 3 7:33:00 12.4, 9.1 10.60 38, 50, 59 (Avg:54)
82 Mark Dunn Bella 4 8:35:00 10.1, 8.6 9.32 35, 46, 54 (Avg:50)
Middleweight
38 Tony Purton Beer Street Bewitched 1 (BC) 5:08:53 16.4, 14.7 15.54 32, 39, 44 (Avg:41)
12 Anita Hutchins Castella Soldier Boy 2 5:10:41 15.1, 15.7 15.45 38, 49, 50 (Avg:49)
101 Wendy Rand Bodhisattva Sca 3 5:22:30 15.1, 14.5 14.88 37, 47, 55 (Avg:51)
57 Tania Jago Undurra Max 4 5:44:00 14.9, 13.1 13.95 35, 47, 58 (Avg:52)
92 Blaine Astell Karabah Tully 5 5:45:00 14.2, 13.6 13.91 31, 46, 57 (Avg:51)
136 Kaye Mitchell Beer Street Dezhda 6 6:04:00 14.2, 12.3 13.19 36, 43, 47 (Avg:45)
69 Tracey Wyllie Elphyn Ripple 7 6:10:00 13.4, 12.5 12.97 32, 41, 53 (Avg:47)
O Shannon Hill Ralvon Splendour 8 6:32:00 12.6, 11.8 12.24 30, 41, 42 (Avg:41)
78 Brad Hill KA Shazi 8 6:32:00 12.6, 11.8 12.24 37, 40, 52 (Avg:46)
15 Sonia Brown-Cordell Yondover Ridge Diva 10 6:53:00 12.1, 11.1 11.62 42, 48, 54 (Avg:51)
256 Wendy Smith Sir Angus of Seven Oaks 11 7:13:00 11.5, 10.6 11.09 39, 43, 56 (Avg:49)
254 Deb Wyllie Ace of Moravian 12 7:58:00 10.4, 9.6 10.04 40, 45, 48 (Avg:46)
271 Jessie Herman Highland View Penny 13 8:13:00 10.3, 9.2 9.74 55, 48, 49 (Avg:48)
309 Nicole Sedgman Shadow 14 8:28:00 10.4, 8.6 9.45 41, 41, 47 (Avg:44)
80 Noel Lockhart Magic Prediction Lame L2 0:00:00 12.6, 11.8 - 35, 44, 43 (Avg:43)
179 Debbie Grull Genie Heart Rate L1 0:00:00 10.3 - 42, 68 (Avg:68)
190 Alice Mitchell Beer Street Banshee Withdrawn L1 0:00:00 - - 46, 43 (Avg:43)
Lightweight
51 Debbie Leary Kerrilea Finesse 1 5:10:40 16.1, 14.8 15.45 38, 47, 60 (Avg:53)
74 Felicity Perry Jaggah Ka 2 (BC) 5:10:42 15.1, 15.7 15.45 29, 40, 46 (Avg:43)
70 Ellie Woodhouse AT Dial Range Raphael 3 6:10:00 13.4, 12.5 12.97 32, 42, 49 (Avg:45)
83 Angie Clark Castlebar Galahad 4 6:15:00 12.4, 13.1 12.80 42, 52, 56 (Avg:54)
253 Kelly Woodhouse Dream Catcher Te 5 6:32:00 12.6, 11.8 12.24 36, 46, 48 (Avg:47)
90 Angela Hawks Touchwarr Universe 6 6:58:00 11.4, 11.4 11.48 37, 44, 47 (Avg:45)
115 Jenny Keygan Woodsong Kasanova 7 7:13:00 11.5, 10.6 11.09 31, 47, 55 (Avg:51)
186 Amelia Napier Rossi 8 7:16:00 11.6, 10.4 11.01 31, 48, 54 (Avg:51)
150 Emily Shadbolt Corryong Rock 8 7:16:00 11.6, 10.4 11.01 46, 40, 49 (Avg:44)
100 Trish Smith Beaucheval Akhiran 10 7:33:00 11.3, 9.9 10.60 32, 46, 52 (Avg:49)
312 Chels Royer AT Dial Range Chrissie 11 7:58:00 10.4, 9.6 10.04 34, 43, 54 (Avg:48)
301 Lyn Stevenson Woodsong Komet 12 8:28:00 10.4, 8.6 9.45 32, 38, 58 (Avg:48)
192 Christal Rizk Trigger Heart Rate L2 0:00:00 9.5, 9.9 - 48, 52, 63 (Avg:57)
Junior
113 Kirstie Lockhart Razara Momentum 1 (BC) 6:32:00 12.6, 11.8 12.24 35, 41, 44 (Avg:42)
127 Jaz Hutchins Corryone Rose of Ky 2 6:53:00 12.1, 11.1 11.62 35, 49, 51 (Avg:50)
168 Emily Gerke Cameo Arpeggio 3 6:58:00 11.4, 11.4 11.48 38, 41, 48 (Avg:44)
191 Indianna Humphries Harmere Burkhan 4 7:01:00 11.5, 11.2 11.40 35, 44, 55 (Avg:49)
308 Ella Carter Ranjen Reflections in Time 5 7:46:00 10.1, 10.4 10.30 44, 51, 51 (Avg:51)
263 Ali Smith El Paso Bin Mishwaar (AU) 6 7:58:00 10.4, 9.6 10.04 30, 37, 41 (Avg:39)